sensor_id;sensor_type;location;lat;lon;timestamp;pressure;altitude;pressure_sealevel;temperature;humidity
37972;BME280;23794;48.234;8.344;2023-02-03T00:01:59;95536.75;;;2.06;81.93
37972;BME280;23794;48.234;8.344;2023-02-03T00:04:26;95546.13;;;1.99;81.74
37972;BME280;23794;48.234;8.344;2023-02-03T00:06:52;95548.97;;;1.94;82.41
37972;BME280;23794;48.234;8.344;2023-02-03T00:09:19;95552.94;;;1.97;82.48
37972;BME280;23794;48.234;8.344;2023-02-03T00:11:46;95551.53;;;1.99;82.20
37972;BME280;23794;48.234;8.344;2023-02-03T00:14:13;95550.88;;;2.03;81.12
37972;BME280;23794;48.234;8.344;2023-02-03T00:16:40;95555.19;;;2.04;81.68
37972;BME280;23794;48.234;8.344;2023-02-03T00:19:06;95545.63;;;2.06;81.95
37972;BME280;23794;48.234;8.344;2023-02-03T00:21:33;95552.03;;;2.10;82.07
37972;BME280;23794;48.234;8.344;2023-02-03T00:24:00;95543.09;;;2.10;82.31
37972;BME280;23794;48.234;8.344;2023-02-03T00:26:27;95545.34;;;2.08;81.61
37972;BME280;23794;48.234;8.344;2023-02-03T00:28:54;95547.56;;;2.06;81.92
37972;BME280;23794;48.234;8.344;2023-02-03T00:31:23;95552.19;;;2.05;81.82
37972;BME280;23794;48.234;8.344;2023-02-03T00:33:55;95550.25;;;2.06;82.08
37972;BME280;23794;48.234;8.344;2023-02-03T00:36:22;95555.34;;;2.07;81.23
37972;BME280;23794;48.234;8.344;2023-02-03T00:38:49;95550.25;;;2.06;82.00
37972;BME280;23794;48.234;8.344;2023-02-03T00:41:17;95552.19;;;2.05;81.91
37972;BME280;23794;48.234;8.344;2023-02-03T00:43:44;95551.19;;;2.01;81.94
37972;BME280;23794;48.234;8.344;2023-02-03T00:46:13;95535.28;;;1.91;82.39
37972;BME280;23794;48.234;8.344;2023-02-03T00:48:40;95553.72;;;1.97;82.60
37972;BME280;23794;48.234;8.344;2023-02-03T00:51:06;95558.69;;;2.04;82.24
37972;BME280;23794;48.234;8.344;2023-02-03T00:53:33;95567.59;;;2.05;82.57
37972;BME280;23794;48.234;8.344;2023-02-03T00:56:03;95559.81;;;2.12;82.29
37972;BME280;23794;48.234;8.344;2023-02-03T00:58:38;95554.25;;;2.08;82.18
37972;BME280;23794;48.234;8.344;2023-02-03T01:01:06;95550.94;;;2.11;82.00
37972;BME280;23794;48.234;8.344;2023-02-03T01:03:33;95545.81;;;2.10;82.10
37972;BME280;23794;48.234;8.344;2023-02-03T01:06:17;95550.59;;;2.13;81.87
37972;BME280;23794;48.234;8.344;2023-02-03T01:08:46;95542.31;;;2.09;81.70
37972;BME280;23794;48.234;8.344;2023-02-03T01:11:16;95544.84;;;2.06;81.81
37972;BME280;23794;48.234;8.344;2023-02-03T01:13:44;95545.19;;;2.04;82.24
37972;BME280;23794;48.234;8.344;2023-02-03T01:16:13;95547.13;;;2.12;81.91
37972;BME280;23794;48.234;8.344;2023-02-03T01:18:41;95549.19;;;2.15;81.75
37972;BME280;23794;48.234;8.344;2023-02-03T01:21:14;95563.50;;;2.16;81.86
37972;BME280;23794;48.234;8.344;2023-02-03T01:23:41;95567.81;;;2.17;81.93
37972;BME280;23794;48.234;8.344;2023-02-03T01:26:15;95571.91;;;2.14;81.66
37972;BME280;23794;48.234;8.344;2023-02-03T01:28:42;95560.47;;;2.09;80.88
37972;BME280;23794;48.234;8.344;2023-02-03T01:31:16;95564.28;;;2.08;81.19
37972;BME280;23794;48.234;8.344;2023-02-03T01:33:44;95569.34;;;2.09;81.33
37972;BME280;23794;48.234;8.344;2023-02-03T01:36:15;95571.44;;;2.12;81.65
37972;BME280;23794;48.234;8.344;2023-02-03T01:38:43;95567.94;;;2.12;81.95
37972;BME280;23794;48.234;8.344;2023-02-03T01:41:16;95564.13;;;2.13;81.45
37972;BME280;23794;48.234;8.344;2023-02-03T01:43:48;95556.63;;;2.10;81.30
37972;BME280;23794;48.234;8.344;2023-02-03T01:51:26;95541.84;;;2.07;81.78
37972;BME280;23794;48.234;8.344;2023-02-03T01:53:54;95544.06;;;2.05;81.99
37972;BME280;23794;48.234;8.344;2023-02-03T01:56:21;95538.97;;;2.04;81.68
37972;BME280;23794;48.234;8.344;2023-02-03T01:58:49;95534.38;;;2.04;82.06
37972;BME280;23794;48.234;8.344;2023-02-03T02:01:16;95514.63;;;2.04;81.54
37972;BME280;23794;48.234;8.344;2023-02-03T02:03:51;95496.53;;;2.04;81.92
37972;BME280;23794;48.234;8.344;2023-02-03T02:06:20;95503.53;;;2.05;81.56
37972;BME280;23794;48.234;8.344;2023-02-03T02:08:50;95493.00;;;2.04;81.66
37972;BME280;23794;48.234;8.344;2023-02-03T02:11:17;95482.53;;;2.02;81.52
37972;BME280;23794;48.234;8.344;2023-02-03T02:13:48;95485.66;;;1.95;81.48
37972;BME280;23794;48.234;8.344;2023-02-03T02:22:12;95501.28;;;2.07;81.96
37972;BME280;23794;48.234;8.344;2023-02-03T02:24:55;95518.31;;;2.08;81.92
37972;BME280;23794;48.234;8.344;2023-02-03T02:28:00;95519.88;;;2.00;81.71
37972;BME280;23794;48.234;8.344;2023-02-03T02:34:30;95526.38;;;1.99;81.99
37972;BME280;23794;48.234;8.344;2023-02-03T02:37:00;95521.16;;;2.03;81.75
37972;BME280;23794;48.234;8.344;2023-02-03T02:39:46;95517.00;;;1.96;81.78
37972;BME280;23794;48.234;8.344;2023-02-03T02:42:34;95504.59;;;1.95;81.71
37972;BME280;23794;48.234;8.344;2023-02-03T02:45:16;95490.47;;;1.98;81.69
37972;BME280;23794;48.234;8.344;2023-02-03T02:47:46;95479.66;;;2.07;81.51
37972;BME280;23794;48.234;8.344;2023-02-03T02:50:22;95490.78;;;2.06;80.89
37972;BME280;23794;48.234;8.344;2023-02-03T02:52:53;95475.06;;;2.08;81.07
37972;BME280;23794;48.234;8.344;2023-02-03T02:55:23;95449.47;;;2.14;80.90
37972;BME280;23794;48.234;8.344;2023-02-03T02:58:01;95420.69;;;2.09;80.72
37972;BME280;23794;48.234;8.344;2023-02-03T03:00:30;95424.50;;;2.08;81.06
37972;BME280;23794;48.234;8.344;2023-02-03T03:03:12;95441.97;;;2.11;81.20
37972;BME280;23794;48.234;8.344;2023-02-03T03:05:45;95438.81;;;2.09;81.29
37972;BME280;23794;48.234;8.344;2023-02-03T03:08:20;95432.47;;;2.13;81.01
37972;BME280;23794;48.234;8.344;2023-02-03T03:10:49;95451.53;;;2.08;81.06
37972;BME280;23794;48.234;8.344;2023-02-03T03:13:21;95462.50;;;2.12;81.14
37972;BME280;23794;48.234;8.344;2023-02-03T03:15:51;95470.47;;;2.17;81.32
37972;BME280;23794;48.234;8.344;2023-02-03T03:18:35;95477.44;;;2.18;81.67
37972;BME280;23794;48.234;8.344;2023-02-03T03:21:05;95455.81;;;2.18;81.54
37972;BME280;23794;48.234;8.344;2023-02-03T03:23:37;95452.66;;;2.16;81.35
37972;BME280;23794;48.234;8.344;2023-02-03T03:26:14;95452.81;;;2.20;81.44
37972;BME280;23794;48.234;8.344;2023-02-03T03:29:25;95445.16;;;2.13;81.20
37972;BME280;23794;48.234;8.344;2023-02-03T03:31:43;95441.97;;;2.11;81.45
37972;BME280;23794;48.234;8.344;2023-02-03T03:34:11;95435.47;;;2.12;81.40
37972;BME280;23794;48.234;8.344;2023-02-03T03:39:40;95469.97;;;2.06;81.49
37972;BME280;23794;48.234;8.344;2023-02-03T03:42:22;95451.53;;;2.08;81.15
37972;BME280;23794;48.234;8.344;2023-02-03T03:48:13;95455.31;;;1.90;80.85
37972;BME280;23794;48.234;8.344;2023-02-03T03:50:50;95443.84;;;1.84;80.61
37972;BME280;23794;48.234;8.344;2023-02-03T03:53:19;95447.34;;;1.84;80.59
37972;BME280;23794;48.234;8.344;2023-02-03T03:55:49;95438.44;;;1.84;80.53
37972;BME280;23794;48.234;8.344;2023-02-03T03:58:22;95436.03;;;1.74;80.61
37972;BME280;23794;48.234;8.344;2023-02-03T04:00:53;95426.81;;;1.66;80.92
37972;BME280;23794;48.234;8.344;2023-02-03T04:03:24;95432.81;;;1.63;81.27
37972;BME280;23794;48.234;8.344;2023-02-03T04:05:53;95432.00;;;1.53;81.37
37972;BME280;23794;48.234;8.344;2023-02-03T04:08:20;95452.16;;;1.47;82.31
37972;BME280;23794;48.234;8.344;2023-02-03T04:10:46;95454.41;;;1.54;81.57
37972;BME280;23794;48.234;8.344;2023-02-03T04:13:13;95462.25;;;1.64;81.13
37972;BME280;23794;48.234;8.344;2023-02-03T04:15:41;95476.09;;;1.72;81.38
37972;BME280;23794;48.234;8.344;2023-02-03T04:18:11;95462.41;;;1.68;82.04
37972;BME280;23794;48.234;8.344;2023-02-03T04:20:38;95473.50;;;1.66;81.71
37972;BME280;23794;48.234;8.344;2023-02-03T04:23:05;95476.22;;;1.66;81.87
37972;BME280;23794;48.234;8.344;2023-02-03T04:25:31;95487.34;;;1.65;81.64
37972;BME280;23794;48.234;8.344;2023-02-03T04:27:58;95503.06;;;1.63;81.89
37972;BME280;23794;48.234;8.344;2023-02-03T04:30:26;95506.06;;;1.61;81.84
37972;BME280;23794;48.234;8.344;2023-02-03T04:32:53;95506.25;;;1.65;82.08
37972;BME280;23794;48.234;8.344;2023-02-03T04:35:20;95499.09;;;1.69;82.27
37972;BME280;23794;48.234;8.344;2023-02-03T04:37:47;95504.03;;;1.67;82.30
37972;BME280;23794;48.234;8.344;2023-02-03T04:40:14;95498.81;;;1.71;82.16
37972;BME280;23794;48.234;8.344;2023-02-03T04:42:40;95500.25;;;1.77;82.03
37972;BME280;23794;48.234;8.344;2023-02-03T04:45:09;95482.78;;;1.74;81.92
37972;BME280;23794;48.234;8.344;2023-02-03T04:47:37;95482.59;;;1.71;82.36
37972;BME280;23794;48.234;8.344;2023-02-03T04:50:05;95483.38;;;1.71;82.14
37972;BME280;23794;48.234;8.344;2023-02-03T04:52:31;95473.84;;;1.65;82.23
37972;BME280;23794;48.234;8.344;2023-02-03T04:54:58;95487.03;;;1.66;82.13
37972;BME280;23794;48.234;8.344;2023-02-03T04:57:25;95490.97;;;1.60;82.37
37972;BME280;23794;48.234;8.344;2023-02-03T04:59:51;95504.66;;;1.64;82.04
37972;BME280;23794;48.234;8.344;2023-02-03T05:02:18;95499.09;;;1.69;82.19
37972;BME280;23794;48.234;8.344;2023-02-03T05:04:45;95504.84;;;1.76;82.10
37972;BME280;23794;48.234;8.344;2023-02-03T05:07:11;95486.44;;;1.78;82.09
37972;BME280;23794;48.234;8.344;2023-02-03T05:09:38;95464.66;;;1.83;82.07
37972;BME280;23794;48.234;8.344;2023-02-03T05:12:05;95468.31;;;1.79;82.14
37972;BME280;23794;48.234;8.344;2023-02-03T05:14:32;95447.31;;;1.76;82.04
37972;BME280;23794;48.234;8.344;2023-02-03T05:16:58;95442.09;;;1.79;82.26
37972;BME280;23794;48.234;8.344;2023-02-03T05:19:25;95445.28;;;1.81;82.14
37972;BME280;23794;48.234;8.344;2023-02-03T05:21:52;95449.88;;;1.81;82.00
37972;BME280;23794;48.234;8.344;2023-02-03T05:24:18;95449.88;;;1.81;82.16
37972;BME280;23794;48.234;8.344;2023-02-03T05:26:45;95451.31;;;1.78;82.06
37972;BME280;23794;48.234;8.344;2023-02-03T05:29:12;95451.97;;;1.84;81.24
37972;BME280;23794;48.234;8.344;2023-02-03T05:31:38;95452.28;;;1.91;81.64
37972;BME280;23794;48.234;8.344;2023-02-03T05:34:05;95443.41;;;1.91;81.77
37972;BME280;23794;48.234;8.344;2023-02-03T05:36:32;95442.44;;;1.87;81.59
37972;BME280;23794;48.234;8.344;2023-02-03T05:38:59;95459.75;;;1.85;81.67
37972;BME280;23794;48.234;8.344;2023-02-03T05:41:25;95459.75;;;1.85;81.93
37972;BME280;23794;48.234;8.344;2023-02-03T05:44:11;95465.81;;;1.91;81.83
37972;BME280;23794;48.234;8.344;2023-02-03T05:46:37;95474.84;;;1.87;82.41
37972;BME280;23794;48.234;8.344;2023-02-03T05:49:04;95480.09;;;1.83;82.49
37972;BME280;23794;48.234;8.344;2023-02-03T05:51:31;95476.63;;;1.91;82.10
37972;BME280;23794;48.234;8.344;2023-02-03T05:54:00;95482.19;;;1.95;81.72
37972;BME280;23794;48.234;8.344;2023-02-03T05:56:27;95479.50;;;2.04;81.70
37972;BME280;23794;48.234;8.344;2023-02-03T05:58:54;95490.00;;;2.05;81.58
37972;BME280;23794;48.234;8.344;2023-02-03T06:01:21;95498.13;;;2.05;81.60
37972;BME280;23794;48.234;8.344;2023-02-03T06:03:51;95505.09;;;1.97;81.98
37972;BME280;23794;48.234;8.344;2023-02-03T06:06:18;95513.50;;;1.96;82.11
37972;BME280;23794;48.234;8.344;2023-02-03T06:08:45;95530.22;;;1.98;81.94
37972;BME280;23794;48.234;8.344;2023-02-03T06:11:12;95528.78;;;2.00;81.85
37972;BME280;23794;48.234;8.344;2023-02-03T06:13:38;95534.63;;;1.94;81.87
37972;BME280;23794;48.234;8.344;2023-02-03T06:16:05;95547.06;;;2.04;81.14
37972;BME280;23794;48.234;8.344;2023-02-03T06:18:32;95549.00;;;2.03;81.49
37972;BME280;23794;48.234;8.344;2023-02-03T06:20:59;95559.66;;;2.08;81.54
37972;BME280;23794;48.234;8.344;2023-02-03T06:23:26;95563.59;;;2.02;81.83
37972;BME280;23794;48.234;8.344;2023-02-03T06:25:53;95540.06;;;2.03;81.57
37972;BME280;23794;48.234;8.344;2023-02-03T06:28:20;95539.28;;;2.02;81.80
37972;BME280;23794;48.234;8.344;2023-02-03T06:30:50;95546.28;;;2.03;81.48
37972;BME280;23794;48.234;8.344;2023-02-03T06:33:19;95539.59;;;2.00;82.18
37972;BME280;23794;48.234;8.344;2023-02-03T06:35:46;95543.59;;;2.03;82.21
37972;BME280;23794;48.234;8.344;2023-02-03T06:38:13;95511.13;;;1.94;81.83
37972;BME280;23794;48.234;8.344;2023-02-03T06:40:39;95506.84;;;2.02;81.86
37972;BME280;23794;48.234;8.344;2023-02-03T06:43:06;95507.34;;;2.04;81.46
37972;BME280;23794;48.234;8.344;2023-02-03T06:45:33;95520.84;;;2.04;81.84
37972;BME280;23794;48.234;8.344;2023-02-03T06:48:00;95533.25;;;2.05;81.54
37972;BME280;23794;48.234;8.344;2023-02-03T06:50:26;95533.72;;;1.98;81.67
37972;BME280;23794;48.234;8.344;2023-02-03T06:52:53;95517.97;;;2.00;81.93
37972;BME280;23794;48.234;8.344;2023-02-03T06:55:20;95504.75;;;1.99;81.68
37972;BME280;23794;48.234;8.344;2023-02-03T06:57:47;95480.59;;;2.03;81.15
37972;BME280;23794;48.234;8.344;2023-02-03T07:00:16;95494.00;;;2.08;80.94
37972;BME280;23794;48.234;8.344;2023-02-03T07:02:45;95486.81;;;2.12;81.16
37972;BME280;23794;48.234;8.344;2023-02-03T07:05:12;95475.53;;;2.10;81.22
37972;BME280;23794;48.234;8.344;2023-02-03T07:07:38;95470.44;;;2.08;80.89
37972;BME280;23794;48.234;8.344;2023-02-03T07:10:06;95482.06;;;2.09;80.97
37972;BME280;23794;48.234;8.344;2023-02-03T07:12:33;95470.13;;;2.10;80.99
37972;BME280;23794;48.234;8.344;2023-02-03T07:15:03;95466.81;;;2.13;81.54
37972;BME280;23794;48.234;8.344;2023-02-03T07:17:30;95456.59;;;2.10;80.57
37972;BME280;23794;48.234;8.344;2023-02-03T07:19:57;95458.53;;;2.18;80.41
37972;BME280;23794;48.234;8.344;2023-02-03T07:22:24;95467.44;;;2.19;80.32
37972;BME280;23794;48.234;8.344;2023-02-03T07:24:50;95489.06;;;2.19;80.36
37972;BME280;23794;48.234;8.344;2023-02-03T07:27:17;95494.50;;;2.27;80.35
37972;BME280;23794;48.234;8.344;2023-02-03T07:29:45;95482.25;;;2.30;80.20
37972;BME280;23794;48.234;8.344;2023-02-03T07:32:12;95481.47;;;2.29;80.01
37972;BME280;23794;48.234;8.344;2023-02-03T07:34:39;95496.41;;;2.27;80.33
37972;BME280;23794;48.234;8.344;2023-02-03T07:37:05;95506.63;;;2.39;80.31
37972;BME280;23794;48.234;8.344;2023-02-03T07:39:32;95495.63;;;2.35;80.63
37972;BME280;23794;48.234;8.344;2023-02-03T07:41:59;95489.28;;;2.40;80.72
37972;BME280;23794;48.234;8.344;2023-02-03T07:44:27;95481.78;;;2.45;80.85
37972;BME280;23794;48.234;8.344;2023-02-03T07:46:54;95489.44;;;2.52;80.16
37972;BME280;23794;48.234;8.344;2023-02-03T07:49:21;95476.06;;;2.47;80.39
37972;BME280;23794;48.234;8.344;2023-02-03T07:51:48;95470.97;;;2.45;79.81
37972;BME280;23794;48.234;8.344;2023-02-03T07:54:14;95472.56;;;2.46;79.83
37972;BME280;23794;48.234;8.344;2023-02-03T07:56:42;95474.00;;;2.53;79.70
37972;BME280;23794;48.234;8.344;2023-02-03T07:59:08;95469.22;;;2.67;79.80
37972;BME280;23794;48.234;8.344;2023-02-03T08:01:35;95478.94;;;2.59;78.98
37972;BME280;23794;48.234;8.344;2023-02-03T08:04:02;95465.56;;;2.63;78.63
37972;BME280;23794;48.234;8.344;2023-02-03T08:06:30;95472.88;;;2.71;78.72
37972;BME280;23794;48.234;8.344;2023-02-03T08:08:57;95474.47;;;2.72;79.23
37972;BME280;23794;48.234;8.344;2023-02-03T08:11:24;95480.81;;;2.76;78.13
37972;BME280;23794;48.234;8.344;2023-02-03T08:13:51;95478.13;;;2.68;78.18
37972;BME280;23794;48.234;8.344;2023-02-03T08:16:18;95478.44;;;2.75;78.74
37972;BME280;23794;48.234;8.344;2023-02-03T08:18:45;95486.25;;;2.76;78.25
37972;BME280;23794;48.234;8.344;2023-02-03T08:21:11;95488.63;;;2.78;78.88
37972;BME280;23794;48.234;8.344;2023-02-03T08:23:38;95506.28;;;2.75;78.04
37972;BME280;23794;48.234;8.344;2023-02-03T08:26:05;95512.53;;;2.76;78.79
37972;BME280;23794;48.234;8.344;2023-02-03T08:28:32;95498.19;;;2.84;76.91
37972;BME280;23794;48.234;8.344;2023-02-03T08:30:59;95494.84;;;2.78;77.70
37972;BME280;23794;48.234;8.344;2023-02-03T08:33:25;95497.41;;;2.75;77.25
37972;BME280;23794;48.234;8.344;2023-02-03T08:35:54;95498.19;;;2.75;77.58
37972;BME280;23794;48.234;8.344;2023-02-03T08:38:22;95508.22;;;2.92;77.60
37972;BME280;23794;48.234;8.344;2023-02-03T08:40:48;95514.56;;;2.96;77.91
37972;BME280;23794;48.234;8.344;2023-02-03T08:43:15;95521.41;;;3.03;78.27
37972;BME280;23794;48.234;8.344;2023-02-03T08:45:42;95536.06;;;3.02;78.76
37972;BME280;23794;48.234;8.344;2023-02-03T08:48:09;95526.03;;;3.02;77.97
37972;BME280;23794;48.234;8.344;2023-02-03T08:50:36;95533.34;;;3.02;78.24
37972;BME280;23794;48.234;8.344;2023-02-03T08:53:02;95526.97;;;3.06;77.67
37972;BME280;23794;48.234;8.344;2023-02-03T08:55:29;95519.16;;;3.13;75.95
37972;BME280;23794;48.234;8.344;2023-02-03T08:57:56;95517.44;;;3.18;77.01
37972;BME280;23794;48.234;8.344;2023-02-03T09:00:22;95520.88;;;3.27;77.40
37972;BME280;23794;48.234;8.344;2023-02-03T09:02:49;95532.06;;;3.34;77.73
37972;BME280;23794;48.234;8.344;2023-02-03T09:05:16;95534.25;;;3.41;77.94
37972;BME280;23794;48.234;8.344;2023-02-03T09:07:43;95553.22;;;3.41;77.60
37972;BME280;23794;48.234;8.344;2023-02-03T09:10:10;95558.63;;;3.41;78.10
37972;BME280;23794;48.234;8.344;2023-02-03T09:12:37;95564.69;;;3.47;77.63
37972;BME280;23794;48.234;8.344;2023-02-03T09:15:04;95569.00;;;3.48;77.83
37972;BME280;23794;48.234;8.344;2023-02-03T09:17:31;95573.94;;;3.46;76.11
37972;BME280;23794;48.234;8.344;2023-02-03T09:19:58;95574.59;;;3.34;77.15
37972;BME280;23794;48.234;8.344;2023-02-03T09:22:24;95564.56;;;3.34;77.84
37972;BME280;23794;48.234;8.344;2023-02-03T09:24:51;95561.53;;;3.36;77.87
37972;BME280;23794;48.234;8.344;2023-02-03T09:27:18;95559.59;;;3.45;77.79
37972;BME280;23794;48.234;8.344;2023-02-03T09:29:45;95569.16;;;3.51;76.99
37972;BME280;23794;48.234;8.344;2023-02-03T09:32:11;95559.41;;;3.50;77.54
37972;BME280;23794;48.234;8.344;2023-02-03T09:34:40;95569.47;;;3.41;76.90
37972;BME280;23794;48.234;8.344;2023-02-03T09:37:07;95566.78;;;3.32;77.27
37972;BME280;23794;48.234;8.344;2023-02-03T09:39:34;95561.50;;;3.27;77.04
37972;BME280;23794;48.234;8.344;2023-02-03T09:44:41;95568.69;;;3.40;77.94
37972;BME280;23794;48.234;8.344;2023-02-03T09:47:26;95567.56;;;3.41;77.62
37972;BME280;23794;48.234;8.344;2023-02-03T09:50:03;95574.59;;;3.34;77.65
37972;BME280;23794;48.234;8.344;2023-02-03T09:52:37;95571.84;;;3.42;77.24
37972;BME280;23794;48.234;8.344;2023-02-03T09:58:10;95551.22;;;3.76;77.52
37972;BME280;23794;48.234;8.344;2023-02-03T10:00:43;95557.88;;;3.88;76.72
37972;BME280;23794;48.234;8.344;2023-02-03T10:06:21;95565.69;;;3.89;76.41
37972;BME280;23794;48.234;8.344;2023-02-03T10:15:04;95569.00;;;3.95;76.21
37972;BME280;23794;48.234;8.344;2023-02-03T10:17:40;95566.81;;;3.88;75.98
37972;BME280;23794;48.234;8.344;2023-02-03T10:22:49;95547.88;;;3.71;76.32
37972;BME280;23794;48.234;8.344;2023-02-03T10:25:20;95559.25;;;3.55;75.78
37972;BME280;23794;48.234;8.344;2023-02-03T10:27:55;95551.78;;;3.52;77.05
37972;BME280;23794;48.234;8.344;2023-02-03T10:30:34;95567.53;;;3.50;76.46
37972;BME280;23794;48.234;8.344;2023-02-03T10:33:12;95564.69;;;3.47;76.84
37972;BME280;23794;48.234;8.344;2023-02-03T10:35:51;95557.06;;;3.31;77.18
37972;BME280;23794;48.234;8.344;2023-02-03T10:41:32;95552.75;;;3.30;77.48
37972;BME280;23794;48.234;8.344;2023-02-03T10:44:01;95550.34;;;3.37;77.15
37972;BME280;23794;48.234;8.344;2023-02-03T10:46:36;95544.31;;;3.40;77.06
37972;BME280;23794;48.234;8.344;2023-02-03T10:49:03;95539.97;;;3.48;76.83
37972;BME280;23794;48.234;8.344;2023-02-03T10:54:02;95529.00;;;3.92;76.80
37972;BME280;23794;48.234;8.344;2023-02-03T10:56:31;95530.97;;;4.13;76.14
37972;BME280;23794;48.234;8.344;2023-02-03T10:59:00;95535.69;;;4.24;75.64
37972;BME280;23794;48.234;8.344;2023-02-03T11:01:46;95532.94;;;4.33;74.66
37972;BME280;23794;48.234;8.344;2023-02-03T11:04:31;95554.63;;;4.33;75.08
37972;BME280;23794;48.234;8.344;2023-02-03T11:07:21;95556.19;;;4.13;73.46
37972;BME280;23794;48.234;8.344;2023-02-03T11:09:46;95556.06;;;4.01;75.37
37972;BME280;23794;48.234;8.344;2023-02-03T11:12:15;95563.75;;;3.90;74.90
37972;BME280;23794;48.234;8.344;2023-02-03T11:14:51;95563.13;;;3.93;75.94
37972;BME280;23794;48.234;8.344;2023-02-03T11:17:19;95564.19;;;4.01;75.74
37972;BME280;23794;48.234;8.344;2023-02-03T11:19:50;95561.06;;;4.29;76.23
37972;BME280;23794;48.234;8.344;2023-02-03T11:22:51;95545.22;;;4.31;75.45
37972;BME280;23794;48.234;8.344;2023-02-03T11:25:22;95532.78;;;4.30;75.33
37972;BME280;23794;48.234;8.344;2023-02-03T11:27:54;95549.13;;;4.21;76.01
37972;BME280;23794;48.234;8.344;2023-02-03T11:30:26;95545.66;;;4.12;75.14
37972;BME280;23794;48.234;8.344;2023-02-03T11:32:56;95545.97;;;4.10;75.44
37972;BME280;23794;48.234;8.344;2023-02-03T11:35:27;95532.72;;;4.17;75.88
37972;BME280;23794;48.234;8.344;2023-02-03T11:37:58;95517.69;;;4.20;75.78
37972;BME280;23794;48.234;8.344;2023-02-03T11:45:26;95499.63;;;4.54;74.81
37972;BME280;23794;48.234;8.344;2023-02-03T11:48:13;95488.16;;;4.69;74.68
37972;BME280;23794;48.234;8.344;2023-02-03T11:51:00;95489.72;;;4.70;73.84
37972;BME280;23794;48.234;8.344;2023-02-03T12:02:01;95471.66;;;4.75;74.98
37972;BME280;23794;48.234;8.344;2023-02-03T12:18:05;95471.88;;;4.69;74.67
37972;BME280;23794;48.234;8.344;2023-02-03T12:30:17;95444.47;;;4.20;74.57
37972;BME280;23794;48.234;8.344;2023-02-03T12:32:54;95451.81;;;4.19;75.26
37972;BME280;23794;48.234;8.344;2023-02-03T12:35:53;95451.94;;;4.23;74.89
37972;BME280;23794;48.234;8.344;2023-02-03T12:41:08;95444.56;;;4.32;74.59
37972;BME280;23794;48.234;8.344;2023-02-03T12:43:41;95461.00;;;4.27;75.26
37972;BME280;23794;48.234;8.344;2023-02-03T12:46:13;95443.13;;;4.05;73.37
37972;BME280;23794;48.234;8.344;2023-02-03T12:49:04;95428.47;;;4.06;74.46
37972;BME280;23794;48.234;8.344;2023-02-03T12:51:49;95424.28;;;4.08;74.31
37972;BME280;23794;48.234;8.344;2023-02-03T12:54:50;95434.94;;;4.14;73.56
37972;BME280;23794;48.234;8.344;2023-02-03T12:57:40;95436.63;;;3.97;74.02
37972;BME280;23794;48.234;8.344;2023-02-03T13:00:29;95444.91;;;4.01;74.44
37972;BME280;23794;48.234;8.344;2023-02-03T13:08:57;95439.94;;;4.03;75.45
37972;BME280;23794;48.234;8.344;2023-02-03T13:11:36;95436.47;;;3.94;74.25
37972;BME280;23794;48.234;8.344;2023-02-03T13:14:30;95424.47;;;4.03;74.94
37972;BME280;23794;48.234;8.344;2023-02-03T13:17:18;95432.94;;;4.02;74.42
37972;BME280;23794;48.234;8.344;2023-02-03T13:19:49;95433.06;;;4.05;73.91
37972;BME280;23794;48.234;8.344;2023-02-03T13:22:17;95448.22;;;4.06;74.10
37972;BME280;23794;48.234;8.344;2023-02-03T13:25:15;95446.50;;;4.02;74.19
37972;BME280;23794;48.234;8.344;2023-02-03T13:30:18;95432.25;;;3.84;74.73
37972;BME280;23794;48.234;8.344;2023-02-03T13:36:04;95435.44;;;3.86;74.52
37972;BME280;23794;48.234;8.344;2023-02-03T13:44:04;95443.69;;;3.89;73.99
37972;BME280;23794;48.234;8.344;2023-02-03T13:46:33;95446.28;;;3.86;74.77
37972;BME280;23794;48.234;8.344;2023-02-03T13:49:03;95447.06;;;3.86;74.97
37972;BME280;23794;48.234;8.344;2023-02-03T13:51:36;95446.16;;;3.73;74.77
37972;BME280;23794;48.234;8.344;2023-02-03T13:54:07;95452.69;;;3.72;75.55
37972;BME280;23794;48.234;8.344;2023-02-03T13:56:39;95461.44;;;3.78;74.88
37972;BME280;23794;48.234;8.344;2023-02-03T14:01:41;95466.25;;;3.72;75.10
37972;BME280;23794;48.234;8.344;2023-02-03T14:12:54;95400.63;;;3.58;76.02
37972;BME280;23794;48.234;8.344;2023-02-03T14:22:58;95431.53;;;3.66;75.08
37972;BME280;23794;48.234;8.344;2023-02-03T14:25:53;95431.53;;;3.66;75.26
37972;BME280;23794;48.234;8.344;2023-02-03T14:28:27;95432.31;;;3.66;74.45
37972;BME280;23794;48.234;8.344;2023-02-03T14:34:00;95421.19;;;3.68;73.66
37972;BME280;23794;48.234;8.344;2023-02-03T14:36:34;95425.97;;;3.62;73.92
37972;BME280;23794;48.234;8.344;2023-02-03T14:39:20;95423.28;;;3.62;75.54
37972;BME280;23794;48.234;8.344;2023-02-03T14:41:56;95416.44;;;3.56;74.71
37972;BME280;23794;48.234;8.344;2023-02-03T14:56:30;95405.06;;;3.33;77.07
37972;BME280;23794;48.234;8.344;2023-02-03T14:59:26;95399.34;;;3.34;77.39
37972;BME280;23794;48.234;8.344;2023-02-03T15:04:23;95426.25;;;3.31;77.90
37972;BME280;23794;48.234;8.344;2023-02-03T15:06:52;95403.78;;;3.30;77.24
37972;BME280;23794;48.234;8.344;2023-02-03T15:09:27;95397.44;;;3.26;77.51
37972;BME280;23794;48.234;8.344;2023-02-03T15:11:56;95408.44;;;3.21;77.91
37972;BME280;23794;48.234;8.344;2023-02-03T15:14:26;95409.56;;;3.28;77.87
37972;BME280;23794;48.234;8.344;2023-02-03T15:16:59;95420.53;;;3.23;78.16
37972;BME280;23794;48.234;8.344;2023-02-03T15:19:37;95438.72;;;3.23;77.90
37972;BME280;23794;48.234;8.344;2023-02-03T15:22:24;95455.16;;;3.18;78.85
37972;BME280;23794;48.234;8.344;2023-02-03T15:24:54;95466.75;;;3.18;78.86
37972;BME280;23794;48.234;8.344;2023-02-03T15:27:24;95455.16;;;3.18;79.14
37972;BME280;23794;48.234;8.344;2023-02-03T15:29:51;95447.03;;;3.09;78.97
37972;BME280;23794;48.234;8.344;2023-02-03T15:32:32;95452.28;;;3.14;78.56
37972;BME280;23794;48.234;8.344;2023-02-03T15:35:03;95444.63;;;3.16;78.70
37972;BME280;23794;48.234;8.344;2023-02-03T15:37:50;95431.88;;;3.08;79.36
37972;BME280;23794;48.234;8.344;2023-02-03T15:40:21;95440.50;;;3.10;78.78
37972;BME280;23794;48.234;8.344;2023-02-03T15:42:59;95441.75;;;3.12;78.80
37972;BME280;23794;48.234;8.344;2023-02-03T15:45:32;95434.59;;;3.08;78.85
37972;BME280;23794;48.234;8.344;2023-02-03T15:50:42;95440.78;;;3.17;78.88